This is the latest recevied weather packets stored in our database for station/object EA1EXV-11. If no packets are shown the sender has not sent any weather packets the latest 10 day(s).
| Time | Temp. | Humidity | Pressure | Rain* | Wind** | Luminosity | Snow |
|---|---|---|---|---|---|---|---|
| 1777474837 | 22.22° C | 46% | 1007.1 hPa | - | - | - | - |
| 1777473937 | 21.67° C | 45% | 1007.2 hPa | - | - | - | - |
| 1777473037 | 22.78° C | 42% | 1007.2 hPa | - | - | - | - |
| 1777472136 | 24.44° C | 40% | 1007 hPa | - | - | - | - |
| 1777471236 | 25° C | 38% | 1007 hPa | - | - | - | - |
| 1777470336 | 25.56° C | 37% | 1007 hPa | - | - | - | - |
| 1777469436 | 27.78° C | 34% | 1007 hPa | - | - | - | - |
| 1777468536 | 29.44° C | 34% | 1007.1 hPa | - | - | - | - |
| 1777467636 | 28.89° C | 36% | 1007.2 hPa | - | - | - | - |
| 1777466736 | 25.56° C | 39% | 1007.3 hPa | - | - | - | - |
| 1777465836 | 25.56° C | 39% | 1007.6 hPa | - | - | - | - |
| 1777464935 | 23.89° C | 42% | 1007.6 hPa | - | - | - | - |
| 1777464035 | 22.22° C | 44% | 1007.7 hPa | - | - | - | - |
| 1777463135 | 21.67° C | 44% | 1007.9 hPa | - | - | - | - |
| 1777462235 | 22.22° C | 45% | 1007.8 hPa | - | - | - | - |
| 1777461335 | 21.11° C | 47% | 1007.8 hPa | - | - | - | - |
| 1777460435 | 21.11° C | 48% | 1007.9 hPa | - | - | - | - |
| 1777459535 | 22.78° C | 49% | 1008 hPa | - | - | - | - |
| 1777458635 | 23.89° C | 51% | 1008.1 hPa | - | - | - | - |
| 1777457735 | 23.33° C | 53% | 1008.2 hPa | - | - | - | - |
| 1777456835 | 18.89° C | 57% | 1008.2 hPa | - | - | - | - |
| 1777455935 | 18.33° C | 59% | 1008.4 hPa | - | - | - | - |
| 1777455034 | 17.78° C | 60% | 1008.4 hPa | - | - | - | - |
| 1777454134 | 18.33° C | 61% | 1008.4 hPa | - | - | - | - |
| 1777453234 | 18.89° C | 62% | 1008.5 hPa | - | - | - | - |
* Rain since midnight (hover to see other rain measurements)
** Current wind speed in m/s (hover to see current wind gust speed)